Bearish Harami

A Bearish Harami is a two day bearish reversal pattern, which may be formed from a combination of a large white or black candlestick and a smaller white or black candlestick. The smaller the second candlestick, the more likely the reversal. It is considered a strong sign that a trend is ending when a large white candle stick is followed by a small black candlestick.

Technicals
Stock Name Action ISIN Quality Score Valuation Score Technical Score Stock Classification Text Default Exchange Current Price Rs Day change % Week change % 5Day SMA Rs 5Day EMA Rs 10Day SMA Rs Candlestick Strength [Bullish minus Bearish] Prev Day Close Rs Last End of Day
MindTree Ltd. Trade Now Detail INE018I01017 58 23 31 Falling Comet NSE 3191.5 -1.74 1.24 3178.37 3186.61 3166.61 -1 3248 2022-09-28
TCI Express Ltd. Trade Now Detail INE586V01016 57 13 49 Expensive Performer NSE 1877.3 -0.96 -3.52 1901.91 1894.48 1918.33 -2 1895.55 2022-09-28
GRP Ltd. Trade Now Detail INE137I01015 42 36 61 Turnaround Potential NSE 1814.25 -2.86 -7.03 1836.07 1840.24 1878.71 -2 1867.65 2022-09-28
IIFL Wealth Management Ltd. Trade Now Detail INE466L01020 46 27 56 Expensive Performer NSE 1773.35 -1.09 -5.55 1776.91 1780.26 1799.82 -1 1792.95 2022-09-28
J L Morison (India) Ltd. Trade Now Detail INE430D01015 53 34 41 Mid-range Performer BSE 1672.35 -3.61 -4.76 1705.96 1698.86 1712.96 -2 1735 2022-09-28
Triton Valves Ltd. Trade Now Detail INE440G01017 26 26 61 Momentum Trap BSE 1540.45 -1.46 0.14 1541.69 1542.18 1531.83 -1 1563.2 2022-09-28
C.E. Info Systems Ltd. Trade Now Detail INE0BV301023 64 5 22 Falling Comet NSE 1321.35 -0.42 -2.74 1330.09 1329.35 1343.38 -1 1326.9 2022-09-28
Best Agrolife Ltd. Trade Now Detail INE052T01013 35 20 59 Expensive Performer NSE 1217.8 -0.81 -3.42 1229.45 1226.22 1236.49 -2 1227.7 2022-09-28
Kajaria Ceramics Ltd. Trade Now Detail INE217B01036 75 17 56 Expensive Performer NSE 1203.7 -2.34 -2.44 1209.2 1210.81 1219.13 -1 1232.5 2022-09-28
Rajratan Global Wire Ltd. Trade Now Detail INE451D01029 78 18 71 Expensive Star NSE 1196.75 -2.92 -4.88 1210.38 1212.87 1240.33 -1 1232.75 2022-09-28
Fredun Pharmaceuticals Ltd. Trade Now Detail INE194R01017 76 19 49 Expensive Performer BSE 1036.85 -2.64 2.02 1047.14 1047.27 1049.54 -2 1064.95 2022-09-28
Morganite Crucible (India) Ltd. Trade Now Detail INE599F01020 84 45 55 Mid-range Performer BSE 1026.25 -3.22 -8.55 1056.23 1052.18 1074.2 -1 1060.35 2022-09-28
CreditAccess Grameen Ltd. Trade Now Detail INE741K01010 48 29 51 Expensive Performer NSE 987.7 -0.41 -1.07 990.41 990.73 995.13 -1 991.8 2022-09-28
Voltas Ltd. Trade Now Detail INE226A01021 64 17 29 Falling Comet NSE 900.8 -0.38 -0.4 897.21 900.86 907.29 -2 904.25 2022-09-28
United Spirits Ltd. Trade Now Detail INE854D01024 84 14 47 Expensive Performer NSE 849.3 -1.14 -2.73 860.12 856.17 858.75 -1 859.1 2022-09-28
Tata Consumer Products Ltd. Trade Now Detail INE192A01025 84 17 48 Expensive Performer NSE 793.65 -0.53 -1.31 791.42 793.98 799.11 -1 797.85 2022-09-28
Caplin Point Laboratories Ltd. Trade Now Detail INE475E01026 39 35 43 Mid-range Performer NSE 723.9 -1.03 0.63 721.25 723.04 725.81 -2 731.45 2022-09-28
LG Balakrishnan & Bros Ltd. Trade Now Detail INE337A01034 87 62 59 Strong Performer, Under Radar NSE 712.95 -0.18 -7.11 720.62 721.43 747.38 -1 714.2 2022-09-28
Star Health and Allied Insurance Company Ltd. Trade Now Detail INE575P01011 26 6 44 Momentum Trap NSE 712.05 -0.91 -1.08 709.19 712.4 716.24 -1 718.6 2022-09-28
Thyrocare Technologies Ltd. Trade Now Detail INE594H01019 50 21 43 Expensive Performer NSE 687.45 -1.74 0.34 691.26 692.46 698.36 -2 699.6 2022-09-28
PSP Projects Ltd. Trade Now Detail INE488V01015 71 46 57 Mid-range Performer NSE 614.95 -2.6 -7.02 626.32 624.65 636 -1 631.35 2022-09-28
Kirloskar Pneumatic Company Ltd. Trade Now Detail INE811A01020 60 24 60 Expensive Performer BSE 534.45 -2.01 -4.12 539.06 540.81 554.84 -1 545.4 2022-09-28
Godrej Agrovet Ltd. Trade Now Detail INE850D01014 48 28 45 Expensive Performer NSE 508.25 -0.81 -2.63 512.89 512.37 517.29 -2 512.4 2022-09-28
Gujarat Gas Ltd. Trade Now Detail INE844O01030 57 26 43 Expensive Performer NSE 506.85 -1.9 -0.06 506.17 506.25 507.4 -1 516.65 2022-09-28
Shakti Pumps (India) Ltd. Trade Now Detail INE908D01010 55 49 40 Mid-range Performer NSE 505.15 -1.24 -3.03 505.26 508.69 520.72 -1 511.5 2022-09-28
Laurus Labs Ltd. Trade Now Detail INE947Q01028 37 19 41 Expensive Performer NSE 501.95 -1.31 -2.7 507.39 507.27 513.55 -1 508.6 2022-09-28
Repro India Ltd. Trade Now Detail INE461B01014 48 21 48 Expensive Performer NSE 435.6 -0.26 -4.72 443.44 443.24 458.23 -1 436.75 2022-09-28
Sharda Cropchem Ltd. Trade Now Detail INE221J01015 64 54 32 Value Stock, Under Radar NSE 433.35 -2.45 -7.24 442.45 444.7 463.07 -1 444.25 2022-09-28
Clariant Chemicals (India) Ltd. Trade Now Detail INE492A01029 55 33 31 Falling Comet NSE 416 -1.5 -3.64 421.04 421.33 428.66 -1 422.35 2022-09-28
Easy Trip Planners Ltd. Trade Now Detail INE07O001018 55 8 43 Expensive Performer NSE 374.05 -1.15 -10.46 381.2 381.39 395.62 -2 378.4 2022-09-28
Adani Power Ltd. Trade Now Detail INE814H01011 76 38 69 Strong Performer, Getting Expensive NSE 367.75 -1.29 -5.83 377.73 375.61 385.62 -1 372.55 2022-09-28
Sundaram Brake Lining Ltd. Trade Now Detail INE073D01013 39 27 37 Expensive Performer NSE 342.65 -1.85 -4.81 349.63 349 357.62 -2 349.1 2022-09-28
Kirloskar Brothers Ltd. Trade Now Detail INE732A01036 58 38 56 Mid-range Performer NSE 341.05 -3.54 -1.16 351.15 346.21 345.74 -1 353.55 2022-09-28
Fineotex Chemical Ltd. Trade Now Detail INE045J01026 76 11 69 Expensive Star NSE 338.85 -2.14 -5.23 345.47 344.05 349.21 -1 346.25 2022-09-28
Vardhman Textiles Ltd. Trade Now Detail INE825A01020 67 64 39 Strong Performer, Under Radar NSE 336.75 -1.65 -4.59 337.7 339.36 347.56 -2 342.4 2022-09-28
Mirza International Ltd. Trade Now Detail INE771A01026 80 37 68 Strong Performer, Getting Expensive NSE 333.2 -0.3 -3.39 336.15 335.1 339.3 -1 334.2 2022-09-28
Krishana Phoschem Ltd. Trade Now Detail INE506W01012 30 21 60 Momentum Trap NSE 330.55 -1.27 -4.91 331.7 333.81 342.93 -1 334.8 2022-09-28
Indian Hotels Company Ltd. Trade Now Detail INE053A01029 53 11 61 Expensive Rocket NSE 324.95 -0.78 -0.28 325.88 324.86 325.73 -1 327.5 2022-09-28
Arvind Fashions Ltd. Trade Now Detail INE955V01021 41 12 62 Expensive Rocket NSE 324.85 -0.4 -0.15 317.53 317.33 308.79 -1 326.15 2022-09-28
Garden Reach Shipbuilders & Engineers Ltd. Trade Now Detail INE382Z01011 53 34 63 Turnaround Potential NSE 324.75 -1.31 -6.65 330.8 329.54 338.91 -2 329.05 2022-09-28
Dynemic Products Ltd. Trade Now Detail INE256H01015 55 27 31 Falling Comet NSE 302.2 -1.26 -0.44 295.45 299.05 299.77 -1 306.05 2022-09-28
Investment & Precision Castings Ltd. Trade Now Detail INE155E01016 46 17 48 Expensive Performer BSE 298.3 -0.22 -1.68 293.14 295.85 294.86 -1 298.95 2022-09-28
Royal Orchid Hotels Ltd. Trade Now Detail INE283H01019 78 36 69 Strong Performer, Getting Expensive NSE 279.55 -0.32 7.68 282.32 277.34 271.3 -1 280.45 2022-09-28
CMS Info Systems Ltd. Trade Now Detail INE925R01014 60 36 38 Mid-range Performer NSE 267.9 -0.32 0.73 265.29 266.59 268.32 -2 268.75 2022-09-28
Rossell India Ltd. Trade Now Detail INE847C01020 67 23 65 Expensive Star NSE 264.1 -2.53 -10.35 270.88 271.51 284.98 -1 270.95 2022-09-28
Accuracy Shipping Ltd. Trade Now Detail INE648Z01015 67 46 58 Mid-range Performer NSE 254.25 -1.34 -0.47 255.1 254.03 250.5 -2 257.7 2022-09-28
Uttam Sugar Mills Ltd. Trade Now Detail INE786F01031 75 73 46 Strong Performer, Under Radar NSE 252.35 -1.62 -1.96 255.81 254.7 255.71 -1 256.5 2022-09-28
Party Cruisers Ltd. Trade Now Detail INE06ZX01015 NA 5 72 NA NSE 250.15 -3.47 -13.14 257.98 261.89 286.67 -2 259.15 2022-09-28
Shree Ganesh Remedies Ltd. Trade Now Detail INE414Y01015 53 28 37 Expensive Performer BSE 237 -1.43 -4.34 240.1 240.08 245.02 -2 240.45 2022-09-28
Race Eco Chain Ltd. Trade Now Detail INE084Q01012 NA 0 60 NA BSE 217.9 -0.05 -0.95 215.05 216.8 218.6 -1 218 2022-09-28
Gujarat Apollo Industries Ltd. Trade Now Detail INE826C01016 49 48 42 Mid-range Performer NSE 209.1 -3.73 -2.08 205.98 208.85 212.14 -1 217.2 2022-09-28
Bhagwati Autocast Ltd. Trade Now Detail INE106G01014 26 38 59 Await Turnaround BSE 209 -4.98 -4.74 215.27 215.91 222.13 -2 219.95 2022-09-27
Shukra Pharmaceuticals Ltd. Trade Now Detail INE551C01028 NA 45 72 NA BSE 195 -2.28 -4.41 198.7 198.09 200.15 -2 199.55 2022-09-28
Devyani International Ltd. Trade Now Detail INE872J01023 69 21 57 Expensive Performer NSE 190.85 -0.47 -1.98 191.15 190.87 191.41 -1 191.75 2022-09-28
Anmol India Ltd. Trade Now Detail INE02AR01019 28 41 31 Weak Stock NSE 171.6 -0.35 -3 172.99 173.15 176.24 -1 172.2 2022-09-28
Duroply Industries Ltd. Trade Now Detail INE932D01010 42 22 57 Expensive Performer BSE 160.5 -1.29 -6.39 164.05 163.47 165.93 -1 162.6 2022-09-28
TGV SRAAC Ltd. Trade Now Detail INE284B01028 84 70 70 Strong Performer BSE 158.1 -1.74 -10.75 164.48 162.61 166.58 -2 160.9 2022-09-28
Exide Industries Ltd. Trade Now Detail INE302A01020 69 68 46 Strong Performer, Under Radar NSE 155.8 -1.02 -4.3 157.42 157.97 162.26 -1 157.4 2022-09-28
Bheema Cements Ltd. Trade Now Detail INE333H01020 NA 4 34 NA BSE 147 -4.85 -4.85 147.14 147.34 143.93 -2 154.5 2022-09-26
Caprihans India Ltd. Trade Now Detail INE479A01018 35 47 60 Turnaround Potential BSE 141.8 -5.06 -3.77 144.85 144.94 146.16 -1 149.35 2022-09-28
Meghmani Organics Ltd. Trade Now Detail INE0CT101020 46 44 47 Mid-range Performer NSE 122.7 -0.24 -3.61 122.32 123.01 126.29 -1 123 2022-09-28
Ganesh Benzoplast Ltd. Trade Now Detail INE388A01029 89 45 47 Mid-range Performer NSE 122.25 -1.09 -2.59 122.94 122.93 124.26 -1 123.6 2022-09-28
NMDC Ltd. Trade Now Detail INE584A01023 55 64 40 Strong Performer, Under Radar NSE 122.2 -1.65 -5.09 125.69 124.54 126.14 -1 124.25 2022-09-28
Dynemic Products Ltd Partly Paidup Trade Now Detail IN9256H01013 NA NA 12 NA NSE 118.1 -9.81 -0.71 126.87 125.92 131.74 -1 130.95 2022-09-28
Oriental Rail Infrastructure Ltd. Trade Now Detail INE457G01029 67 27 46 Expensive Performer BSE 118 -1.87 0.77 118.32 118.42 118.44 -1 120.25 2022-09-28
Star Delta Transformers Ltd. Trade Now Detail INE541K01014 NA 63 59 NA BSE 117.15 -6.2 -13.99 125.45 123.62 128.86 -2 124.9 2022-09-28
Federal Bank Ltd. Trade Now Detail INE171A01029 28 50 58 Risky Value NSE 111.85 -2.23 -8.88 115.38 114.88 118.92 -1 114.4 2022-09-28
Precision Camshafts Ltd. Trade Now Detail INE484I01029 87 55 35 Strong Performer, Under Radar NSE 111.15 -1.55 -6.6 113.33 113.52 117.78 -1 112.9 2022-09-28
ITD Cementation India Ltd. Trade Now Detail INE686A01026 78 56 66 Strong Performer NSE 110.8 -1.82 -4.24 112.77 111.82 112.6 -1 112.85 2022-09-28
Chandra Bhagat Pharma Ltd. Trade Now Detail INE07QQ01016 NA 15 62 NA BSE 106.25 -4.96 -1.62 107.11 106.37 102.21 -2 111.8 2022-09-19
JTEKT India Ltd. Trade Now Detail INE643A01035 55 26 60 Expensive Performer NSE 104.95 -0.43 8.48 99.01 100.8 99.32 -1 105.4 2022-09-28
DCB Bank Ltd. Trade Now Detail INE503A01015 48 71 59 Mid-range Performer NSE 103.35 -1.57 -3.95 105.66 105.2 108.26 -1 105 2022-09-28
Kalyan Jewellers India Ltd. Trade Now Detail INE303R01014 75 33 62 Strong Performer, Getting Expensive NSE 94.8 -1.96 1.23 93.53 94.09 94.75 -2 96.7 2022-09-28
Ashapura Minechem Ltd. Trade Now Detail INE348A01023 37 42 31 Slowing Down Stock NSE 90.7 -0.93 -3.41 91.13 91.37 93.04 -2 91.55 2022-09-28
Abhinav Capital Services Ltd. Trade Now Detail INE516F01016 NA 66 46 NA BSE 90.7 -2.94 -12.79 94.55 94.59 100.29 -1 93.45 2022-09-28
Rubfila International Ltd. Trade Now Detail INE642C01025 62 49 46 Mid-range Performer BSE 89.5 -2.29 -4.07 90.64 90.7 92.76 -1 91.6 2022-09-28
Archidply Industries Ltd. Trade Now Detail INE877I01016 96 64 68 Strong Performer NSE 82.15 -3.52 -3.81 82.05 82.91 85.25 -1 85.15 2022-09-28
DCM Shriram Industries Ltd. Trade Now Detail INE843D01027 37 62 27 Falling Comet NSE 77.4 -1.09 -6.41 78.47 78.58 80.53 -1 78.25 2022-09-28
Nelcast Ltd. Trade Now Detail INE189I01024 46 34 55 Mid-range Performer NSE 76.95 -0.52 -6.33 77.76 77.98 80.94 -1 77.35 2022-09-28
Kesar Enterprises Ltd. Trade Now Detail INE133B01019 32 31 29 Weak Stock BSE 76.75 -3.76 -2.1 78.26 77.99 78.49 -1 79.75 2022-09-28
Bliss GVS Pharma Ltd. Trade Now Detail INE416D01022 60 34 40 Mid-range Performer NSE 76.15 -1.87 -7.25 78.09 77.95 79.99 -1 77.6 2022-09-28
Xchanging Solutions Ltd. Trade Now Detail INE692G01013 67 42 42 Mid-range Performer NSE 74.65 -1.06 -5.74 76.08 76.12 78.82 -2 75.45 2022-09-28
Gillanders Arbuthnot & Company Ltd. Trade Now Detail INE047B01011 76 90 43 Strong Performer, Under Radar NSE 64.95 -2.18 -9.22 67.24 66.92 69.27 -2 66.4 2022-09-28
Ganesh Holding Ltd. Trade Now Detail INE932M01011 NA 12 41 NA BSE 61.95 -0.32 1.72 60.41 61.56 63.48 -1 62.15 2022-09-28
PNB Gilts Ltd. Trade Now Detail INE859A01011 33 39 43 Await Turnaround NSE 61.2 -0.24 -2.63 61.74 61.68 62.46 -1 61.35 2022-09-28
Raj Oil Mills Ltd. Trade Now Detail INE294G01026 NA 19 33 NA NSE 58.25 -1.6 -3.08 59.11 59.03 59.58 -2 59.2 2022-09-28
Shree Renuka Sugars Ltd. Trade Now Detail INE087H01022 21 8 72 Momentum Trap NSE 57.9 -2.44 1.94 57.87 57.21 55.1 -1 59.35 2022-09-28
Mukta Arts Ltd. Trade Now Detail INE374B01019 75 43 59 Mid-range Performer NSE 57.45 -1.2 -1.88 57.97 57.99 59.28 -1 58.15 2022-09-28
Integra Engineering India Ltd. Trade Now Detail INE984B01023 48 25 29 Expensive Underperformer BSE 56.85 -2.24 -10.61 59.4 59.09 61.42 -1 58.15 2022-09-28
Quality RO Industries Ltd. Trade Now Detail INE0KAF01018 NA 6 24 NA BSE 50.5 -0.98 3.06 50.1 50.2 49.55 -2 51 2022-09-27
Motilal Oswal 5 Year G-Sec ETF Trade Now Detail INF247L01AK4 NA NA 45 NA NSE 49.12 -0.1 -1.31 49.07 49.14 49.24 -2 49.17 2022-09-28
VSF Projects Ltd. Trade Now Detail INE923K01014 NA 1 50 NA BSE 44 -0.79 3.53 43.73 43.89 43.64 -2 44.35 2022-09-28
Aarnav Fashions Ltd. Trade Now Detail INE750R01016 71 30 29 Falling Comet BSE 44 -1.01 -4.97 44.39 44.6 45.83 -1 44.45 2022-09-28
Bhaskar Agrochemicals Ltd. Trade Now Detail INE972C01018 NA 33 34 NA BSE 39 -2.5 -2.5 39.6 39.55 40 -1 40 2022-09-28
Kirloskar Electric Company Ltd. Trade Now Detail INE134B01017 53 71 55 Mid-range Performer NSE 38.7 -3.13 -7.42 39.55 39.65 41 -1 39.95 2022-09-28
Mohini Health & Hygiene Ltd. Trade Now Detail INE450S01011 NA 24 59 NA NSE 35.55 -2.47 -3.79 36.76 36.35 37.02 -1 36.45 2022-09-28
Astron Paper & Board Mill Ltd. Trade Now Detail INE646X01014 73 50 31 Value Stock, Under Radar NSE 34.65 -1 -4.02 34.88 34.96 35.71 -1 35 2022-09-28
Cressanda Solutions Ltd. Trade Now Detail INE716D01033 NA 4 65 NA BSE 34.45 -1.57 -15.36 36.35 35.95 37.48 -1 35 2022-09-28
Bombay Wire Ropes Ltd. Trade Now Detail INE089T01023 NA 13 23 NA BSE 34 -4.63 -6.98 35.14 35.21 36.7 -2 35.65 2022-09-28
Rishi Techtex Ltd. Trade Now Detail INE989D01010 NA 55 45 NA BSE 27.55 -3.33 -1.08 27.6 27.74 27.9 -1 28.5 2022-09-28
Simplex Papers Ltd. Trade Now Detail INE456H01011 NA NA 25 NA BSE 26.6 -1.12 -7.48 27.07 27.11 27.86 -1 26.9 2022-09-28
Chandni Machines Ltd. Trade Now Detail INE01GZ01011 NA 81 35 NA BSE 25.95 -1.7 1.37 26.03 26.01 26.18 -1 26.4 2022-09-28
Gowra Leasing & Finance Ltd. Trade Now Detail INE225G01012 NA 49 42 NA BSE 23 -0.22 10.58 22.07 22.43 22.1 -2 23.05 2022-09-28
Valson Industries Ltd. Trade Now Detail INE808A01018 NA 34 50 NA BSE 22.5 -3.64 -2.17 23.01 22.86 22.58 -1 23.35 2022-09-28
Step Two Corporation Ltd. Trade Now Detail INE623D01015 NA 23 76 NA BSE 21.95 -0.23 2.09 21.28 21.52 21.17 -2 22 2022-09-28
Sita Enterprises Ltd. Trade Now Detail INE579D01019 NA 38 71 NA BSE 21.6 -4.85 20 21.2 21.1 19.64 -2 22.7 2022-09-26
Manaksia Coated Metals & Industries Ltd. Trade Now Detail INE830Q01018 55 49 29 Falling Comet NSE 18.65 -1.06 -2.1 18.72 18.77 18.99 -1 18.85 2022-09-28
Aditya Spinners Ltd. Trade Now Detail INE122D01026 NA 80 37 NA BSE 17.8 -0.56 -8.01 18.17 18.14 18.42 -1 17.9 2022-09-28
Naturo Indiabull Ltd. Trade Now Detail INE0JNB01012 NA 12 9 NA BSE 17.5 -4.37 -12.5 18.21 18.36 19.79 -2 18.3 2022-09-28
Evoq Remedies Ltd. Trade Now Detail INE0JVD01011 NA 12 29 NA BSE 15.59 -4.71 -16.85 16.53 16.51 17.74 -1 16.36 2022-09-28
IL&FS Engineering & Construction Company Ltd. Trade Now Detail INE369I01014 33 27 54 Momentum Trap NSE 15.35 -3.76 -10.76 16.27 16.1 16.88 -2 15.95 2022-09-28
PTC India Financial Services Ltd. Trade Now Detail INE560K01014 53 64 34 Mid-range Performer NSE 14.45 -1.37 -3.34 14.65 14.66 14.98 -1 14.65 2022-09-28
Capital Trade Links Ltd. Trade Now Detail INE172D01021 NA 23 60 NA BSE 14.05 -0.71 6.2 14.12 13.89 13.18 -1 14.15 2022-09-28
Siel Financial Services Ltd. Trade Now Detail INE027F01014 NA NA 43 NA BSE 13.39 -0.07 -0.89 13.27 13.32 13.34 -1 13.4 2022-09-28
Vani Commercials Ltd. Trade Now Detail INE661Q01017 NA 47 62 NA BSE 13.2 -2.22 -5.71 13.48 13.47 13.78 -1 13.5 2022-09-28
United Credit Ltd. Trade Now Detail INE858C01027 NA 61 50 NA BSE 12.77 -0.08 -0.55 12.8 12.68 12.58 -2 12.78 2022-09-26
Century Extrusions Ltd. Trade Now Detail INE281A01026 44 50 45 Mid-range Performer NSE 11.6 -2.52 -2.52 11.62 11.7 11.79 -1 11.9 2022-09-28
Encode Packaging India Ltd. Trade Now Detail INE900O01014 NA 44 34 NA BSE 8.06 -4.95 -4.16 8.2 8.34 8.77 -2 8.48 2022-09-28
Jayshree Chemicals Ltd. Trade Now Detail INE693E01016 NA 16 49 NA BSE 7.09 -0.7 -2.21 7.26 7.2 7.33 -1 7.14 2022-09-28
Aravali Securities & Finance Ltd. Trade Now Detail INE068C01015 NA 20 32 NA BSE 5.98 -1.97 1.36 5.78 5.88 5.87 -1 6.1 2022-09-28
J D Orgochem Ltd. Trade Now Detail INE263B01022 NA 4 49 NA BSE 5.94 -4.96 -7.62 6.2 6.13 6.21 -2 6.25 2022-09-28
Prakash Steelage Ltd. Trade Now Detail INE696K01024 76 41 40 Mid-range Performer NSE 5.45 -2.68 -2.68 5.44 5.47 5.56 -2 5.6 2022-09-28
Jagjanani Textiles Ltd. Trade Now Detail INE702H01018 NA 3 81 NA BSE 4.74 -4.82 15.05 4.66 4.62 4.21 -2 4.98 2022-09-28
V B Industries Ltd. Trade Now Detail INE334E01017 NA 43 60 NA BSE 4.57 -1.93 -8.23 4.66 4.64 4.72 -2 4.66 2022-09-28
Anjani Finance Ltd. Trade Now Detail INE283D01018 NA 20 37 NA BSE 4.4 -10.02 0.46 4.42 4.49 4.44 -2 4.89 2022-09-28
Usha Martin Education & Solutions Ltd. Trade Now Detail INE240C01028 NA 23 38 NA NSE 4.25 -1.16 -1.16 4.26 4.28 4.3 -1 4.3 2022-09-28
Stellar Capital Services Ltd. Trade Now Detail INE325P01011 NA 30 61 NA BSE 4.25 -15 -6.39 4.64 4.63 4.59 -2 5 2022-09-27
GCM Commodity & Derivatives Ltd. Trade Now Detail INE200P01016 NA 32 49 NA BSE 4.15 -8.79 -12.63 4.34 4.26 3.86 -1 4.55 2022-09-27
Thirani Projects Ltd. Trade Now Detail INE901C01017 NA 38 29 NA BSE 2.75 -3.17 -1.79 2.76 2.78 2.82 -1 2.84 2022-09-28
CFSL Ltd. Trade Now Detail INE717D01023 NA 28 31 NA BSE 2.06 -1.44 -2.37 2.07 2.08 2.11 -1 2.09 2022-09-28
Bhoruka Aluminium Ltd. Trade Now Detail INE866G01013 NA 16 47 NA BSE 0.7 -4.11 -4.11 0.72 0.74 0.8 -2 0.73 2022-09-26